Time;durP1;ratioP1;P1;durP2;ratioP2;P2;SDS_P1;SDS_P2;PMS_P1;PMS_P2;Temp;Humidity;BMP_temperature;BMP_pressure;BME280_temperature;BME280_humidity;BME280_pressure;Samples;Min_cycle;Max_cycle;Signal;HPM_P1;HPM_P2
2021/06/15 00:02:40;;;;;;;4.03;2.72;;;;;;;13.41;90.85;100220.63;6303144;28;20044;-61
2021/06/15 00:05:40;;;;;;;8.17;3.10;;;;;;;13.53;89.98;100219.78;6321010;28;20040;-62
2021/06/15 00:08:41;;;;;;;8.73;3.28;;;;;;;13.38;90.75;100224.28;6320894;28;20093;-61
2021/06/15 00:11:42;;;;;;;3.60;2.60;;;;;;;13.44;90.34;100223.03;6320945;28;20068;-61
2021/06/15 00:14:43;;;;;;;4.05;2.92;;;;;;;13.46;91.32;100219.34;6320669;28;20044;-61
2021/06/15 00:17:45;;;;;;;9.32;3.50;;;;;;;13.36;91.57;100213.06;6320637;28;20487;-61
2021/06/15 00:20:47;;;;;;;;;;;;;;;13.42;91.80;100212.66;6303203;28;20093;-62
2021/06/15 00:23:48;;;;;;;5.80;3.10;;;;;;;13.47;91.12;100215.78;6325499;28;20373;-62
2021/06/15 00:26:48;;;;;;;5.65;3.20;;;;;;;13.38;91.86;100208.56;6324190;28;20048;-62
2021/06/15 00:29:49;;;;;;;9.45;3.30;;;;;;;13.34;91.90;100217.59;6324560;28;20040;-62
2021/06/15 00:32:51;;;;;;;6.05;3.70;;;;;;;13.33;91.77;100215.09;6325721;28;20047;-61
2021/06/15 00:35:51;;;;;;;6.00;3.07;;;;;;;13.23;92.35;100212.25;6324587;28;20051;-62
2021/06/15 00:38:52;;;;;;;4.93;3.20;;;;;;;13.17;93.75;100210.88;6325369;28;20043;-62
2021/06/15 00:41:53;;;;;;;7.10;3.47;;;;;;;13.14;93.43;100221.59;6324339;28;20058;-62
2021/06/15 00:44:54;;;;;;;8.18;3.50;;;;;;;13.13;93.91;100211.19;6324163;28;20169;-63
2021/06/15 00:47:55;;;;;;;5.00;3.35;;;;;;;13.19;93.48;100221.25;6325187;28;20490;-63
2021/06/15 00:50:58;;;;;;;7.95;3.85;;;;;;;13.13;94.69;100213.81;6325299;28;20540;-64
2021/06/15 00:54:00;;;;;;;8.95;3.85;;;;;;;13.10;94.15;100222.72;6325210;28;20093;-63
2021/06/15 00:57:01;;;;;;;10.00;3.70;;;;;;;13.08;94.74;100214.97;6323951;28;20120;-63
2021/06/15 01:00:04;;;;;;;6.57;3.33;;;;;;;13.10;94.21;100212.25;6323825;28;20055;-62
2021/06/15 01:03:06;;;;;;;7.35;3.88;;;;;;;13.02;95.13;100215.41;6323390;28;20150;-62
2021/06/15 01:06:13;;;;;;;8.00;4.32;;;;;;;13.02;94.69;100215.41;6324652;28;20173;-62
2021/06/15 01:09:20;;;;;;;5.45;3.80;;;;;;;13.09;94.04;100210.56;6323751;28;20127;-62
2021/06/15 01:12:34;;;;;;;4.53;3.28;;;;;;;13.09;94.91;100203.56;6323213;28;20048;-62
2021/06/15 01:16:13;;;;;;;8.73;3.72;;;;;;;13.26;94.11;100202.38;6324711;28;20044;-62
2021/06/15 01:19:41;;;;;;;8.20;3.95;;;;;;;13.13;95.30;100200.72;6322967;28;20048;-63
2021/06/15 01:23:11;;;;;;;7.85;3.80;;;;;;;13.25;95.11;100205.09;6324606;28;20075;-64
2021/06/15 01:26:30;;;;;;;4.47;3.40;;;;;;;13.32;94.80;100195.88;6324400;28;20474;-63
2021/06/15 01:29:38;;;;;;;7.47;3.53;;;;;;;13.32;94.65;100195.88;6324233;28;20052;-62
2021/06/15 01:32:45;;;;;;;10.13;3.60;;;;;;;13.38;94.98;100197.25;6322789;28;20063;-62
2021/06/15 01:35:47;;;;;;;5.95;3.65;;;;;;;13.42;94.71;100190.84;6324184;28;20068;-62
2021/06/15 01:38:54;;;;;;;7.07;3.63;;;;;;;13.41;94.43;100190.03;6322887;28;20072;-64
2021/06/15 01:42:19;;;;;;;5.32;3.22;;;;;;;13.49;94.19;100192.94;6305993;28;20475;-62
2021/06/15 01:45:29;;;;;;;5.88;3.42;;;;;;;13.48;94.19;100198.28;6305882;28;20419;-64
2021/06/15 01:48:41;;;;;;;6.70;3.65;;;;;;;13.57;93.64;100197.63;6339404;28;20421;-63
2021/06/15 01:51:44;;;;;;;6.43;4.00;;;;;;;13.55;94.36;100194.28;6322625;28;20051;-62
2021/06/15 01:54:47;;;;;;;7.50;4.07;;;;;;;13.65;93.72;100200.56;6322551;28;20105;-63
2021/06/15 01:57:49;;;;;;;4.82;3.20;;;;;;;13.69;93.96;100193.28;6323690;28;20043;-63
2021/06/15 02:00:51;;;;;;;10.65;3.58;;;;;;;13.70;94.19;100194.97;6322330;28;20551;-63
2021/06/15 02:03:54;;;;;;;5.00;3.67;;;;;;;13.57;95.16;100189.78;6323531;28;20105;-63
2021/06/15 02:06:57;;;;;;;5.55;3.80;;;;;;;13.59;95.32;100193.13;6305541;28;20067;-62
2021/06/15 02:10:11;;;;;;;7.60;3.80;;;;;;;13.48;95.56;100186.00;6323318;28;20089;-62
2021/06/15 02:13:13;;;;;;;11.95;3.95;;;;;;;13.50;95.72;100185.91;6321905;28;20052;-63
2021/06/15 02:16:16;;;;;;;5.32;3.58;;;;;;;13.43;96.25;100190.75;6323165;28;20063;-63
2021/06/15 02:19:18;;;;;;;;;;;;;;;13.41;96.40;100186.56;6323584;28;20063;-62
2021/06/15 02:22:21;;;;;;;6.53;3.80;;;;;;;13.43;96.54;100184.69;6323187;28;19920;-63
2021/06/15 02:25:29;;;;;;;6.13;3.97;;;;;;;13.44;96.18;100184.53;6322970;28;20040;-65
2021/06/15 02:28:30;;;;;;;5.95;3.67;;;;;;;13.54;95.88;100176.88;6304770;28;20078;-65
2021/06/15 02:31:34;;;;;;;7.45;3.95;;;;;;;13.51;95.93;100179.72;6321899;28;20044;-64
2021/06/15 02:34:42;;;;;;;8.23;4.30;;;;;;;13.58;95.89;100177.50;6322914;28;20093;-65
2021/06/15 02:37:56;;;;;;;7.28;3.95;;;;;;;13.61;95.60;100179.88;6322810;28;20462;-65
2021/06/15 02:41:01;;;;;;;7.63;3.92;;;;;;;13.64;95.62;100171.81;6322670;28;20037;-64
2021/06/15 02:44:04;;;;;;;6.35;3.53;;;;;;;13.74;93.96;100177.25;6322213;28;20033;-65
2021/06/15 02:47:07;;;;;;;5.95;3.75;;;;;;;13.82;94.24;100169.66;6321174;28;20032;-65
2021/06/15 02:50:08;;;;;;;8.55;3.80;;;;;;;13.80;93.56;100182.03;6322408;28;20036;-65
2021/06/15 02:53:17;;;;;;;7.28;3.67;;;;;;;13.87;92.75;100188.50;6322356;28;20051;-65
2021/06/15 02:56:21;;;;;;;7.05;3.20;;;;;;;13.85;92.02;100182.53;6321133;28;20116;-64
2021/06/15 02:59:22;;;;;;;8.32;3.20;;;;;;;13.96;91.77;100182.59;6337800;28;20124;-64
2021/06/15 03:02:24;;;;;;;5.82;3.13;;;;;;;14.02;90.53;100183.91;6321044;28;20516;-65
2021/06/15 03:05:25;;;;;;;11.98;3.08;;;;;;;14.11;89.00;100184.09;6322219;28;20040;-65
2021/06/15 03:08:26;;;;;;;8.77;2.80;;;;;;;14.19;87.71;100187.94;6287471;28;20040;-65
2021/06/15 03:11:28;;;;;;;8.38;3.15;;;;;;;14.18;87.64;100189.72;6320425;28;20691;-64
2021/06/15 03:14:30;;;;;;;;;;;;;;;14.27;87.56;100188.22;6322380;28;20048;-65
2021/06/15 03:17:33;;;;;;;4.05;2.92;;;;;;;14.27;87.03;100193.47;6320481;28;19919;-65
2021/06/15 03:20:36;;;;;;;4.07;2.53;;;;;;;14.34;86.01;100196.47;6321575;28;20237;-65
2021/06/15 03:23:43;;;;;;;3.88;2.50;;;;;;;14.31;85.71;100200.16;6321519;28;20060;-65
2021/06/15 03:26:50;;;;;;;7.25;2.47;;;;;;;14.32;84.91;100194.78;6321363;28;20036;-65
2021/06/15 03:29:51;;;;;;;3.75;2.40;;;;;;;14.29;84.45;100200.25;6320225;28;20043;-64
2021/06/15 03:33:08;;;;;;;7.75;2.22;;;;;;;14.40;83.15;100206.50;6320256;28;20044;-64
2021/06/15 03:36:10;;;;;;;3.13;2.10;;;;;;;14.44;82.72;100214.03;6320355;28;20070;-65
2021/06/15 03:39:11;;;;;;;4.20;2.08;;;;;;;14.50;81.81;100213.56;6320169;28;20103;-64
2021/06/15 03:42:19;;;;;;;3.90;1.92;;;;;;;14.49;80.88;100216.31;6321435;28;20047;-64
2021/06/15 03:45:26;;;;;;;4.30;1.98;;;;;;;14.49;81.27;100214.50;6321345;28;20506;-65
2021/06/15 03:48:28;;;;;;;6.82;2.65;;;;;;;14.51;81.46;100217.03;6321264;28;20067;-65
2021/06/15 03:51:32;;;;;;;2.28;1.98;;;;;;;14.52;81.86;100210.84;6320038;28;20123;-65
2021/06/15 03:54:34;;;;;;;2.92;1.90;;;;;;;14.50;81.89;100208.31;6320101;28;20113;-65
2021/06/15 03:57:43;;;;;;;4.72;2.22;;;;;;;14.54;81.62;100208.06;6320814;28;20055;-64
2021/06/15 04:00:48;;;;;;;9.93;2.63;;;;;;;14.58;81.79;100209.56;6321043;28;20048;-64
2021/06/15 04:03:52;;;;;;;5.47;2.00;;;;;;;14.61;81.91;100214.59;6321105;28;20136;-65
2021/06/15 04:06:54;;;;;;;4.13;2.10;;;;;;;14.66;80.85;100207.19;6320876;28;20048;-63
2021/06/15 04:09:55;;;;;;;6.95;2.42;;;;;;;14.73;80.62;100205.78;6319613;28;20044;-63
2021/06/15 04:13:00;;;;;;;2.50;2.00;;;;;;;14.83;80.09;100206.75;6319529;28;20063;-63
2021/06/15 04:16:03;;;;;;;3.92;2.25;;;;;;;14.80;81.02;100206.97;6320879;28;20036;-63
2021/06/15 04:19:11;;;;;;;4.95;2.05;;;;;;;14.88;80.85;100201.13;6319642;28;20048;-63
2021/06/15 04:22:14;;;;;;;6.78;2.65;;;;;;;14.87;81.90;100204.75;6320819;28;20471;-63
2021/06/15 04:25:26;;;;;;;5.50;2.17;;;;;;;14.87;81.17;100210.00;6302877;28;20089;-63
2021/06/15 04:28:29;;;;;;;6.25;2.42;;;;;;;14.84;81.89;100216.28;6320716;28;20047;-63
2021/06/15 04:31:31;;;;;;;4.60;2.30;;;;;;;14.85;81.35;100214.53;6302921;28;20144;-63
2021/06/15 04:34:34;;;;;;;4.50;2.15;;;;;;;14.87;81.40;100223.97;6321335;28;20040;-63
2021/06/15 04:37:37;;;;;;;4.32;2.10;;;;;;;14.92;80.81;100218.34;6319947;28;20044;-63
2021/06/15 04:40:42;;;;;;;4.78;2.22;;;;;;;15.04;81.13;100216.56;6303319;28;20561;-63
2021/06/15 04:44:35;;;;;;;5.65;2.00;;;;;;;15.19;81.06;100218.00;6321088;28;20051;-62
2021/06/15 04:47:40;;;;;;;5.88;1.67;;;;;;;15.38;79.71;100219.19;6316803;28;20047;-63
2021/06/15 04:50:41;;;;;;;22.42;3.20;;;;;;;15.49;79.17;100217.41;6319271;28;20048;-63
2021/06/15 04:53:42;;;;;;;3.83;1.88;;;;;;;15.64;78.63;100217.97;6320489;28;20672;-65
2021/06/15 04:56:46;;;;;;;3.42;1.77;;;;;;;15.79;77.27;100223.81;6319375;28;20048;-65
2021/06/15 04:59:50;;;;;;;3.08;1.70;;;;;;;15.92;76.59;100226.34;6320624;28;20051;-65
2021/06/15 05:02:52;;;;;;;2.85;1.50;;;;;;;16.02;75.05;100232.53;6320272;28;20048;-64
2021/06/15 05:05:53;;;;;;;1.95;1.50;;;;;;;16.09;74.82;100236.31;6319218;28;20060;-65
2021/06/15 05:08:59;;;;;;;4.25;1.80;;;;;;;16.22;72.86;100235.31;6323030;28;20449;-65
2021/06/15 05:12:01;;;;;;;2.05;1.40;;;;;;;16.33;72.21;100232.66;6335754;28;20055;-66
2021/06/15 05:15:09;;;;;;;3.78;1.67;;;;;;;16.50;71.45;100232.06;6350260;28;20046;-67
2021/06/15 05:18:10;;;;;;;2.45;1.48;;;;;;;16.60;71.45;100244.50;6348996;28;20543;-66
2021/06/15 05:21:21;;;;;;;4.72;1.50;;;;;;;16.73;70.10;100238.06;6344690;28;20060;-65
2021/06/15 05:24:50;;;;;;;3.38;1.48;;;;;;;16.84;68.28;100237.22;6339914;28;20042;-64
2021/06/15 05:27:52;;;;;;;3.85;1.60;;;;;;;16.91;68.80;100240.16;6326499;28;20044;-65
2021/06/15 05:30:53;;;;;;;2.80;1.50;;;;;;;16.97;68.64;100239.63;6323531;28;20052;-64
2021/06/15 05:33:53;;;;;;;2.25;1.20;;;;;;;17.04;67.14;100232.03;6339556;28;20445;-65
2021/06/15 05:36:54;;;;;;;4.07;1.33;;;;;;;17.17;66.78;100242.34;6324358;28;20069;-64
2021/06/15 05:39:57;;;;;;;3.42;1.30;;;;;;;17.20;67.68;100239.47;6322417;28;20040;-65
2021/06/15 05:42:58;;;;;;;2.85;1.30;;;;;;;17.20;66.25;100236.84;6323782;28;20047;-65
2021/06/15 05:45:59;;;;;;;1.73;1.30;;;;;;;17.23;67.36;100244.47;6305951;28;20044;-65
2021/06/15 05:48:59;;;;;;;3.65;1.55;;;;;;;17.27;67.29;100237.97;6323785;28;20040;-65
2021/06/15 05:52:06;;;;;;;5.88;1.60;;;;;;;17.21;66.77;100239.31;6305706;28;20089;-65
2021/06/15 05:55:08;;;;;;;2.20;1.60;;;;;;;17.18;68.03;100233.50;6323618;28;20131;-65
2021/06/15 05:58:10;;;;;;;4.70;1.38;;;;;;;17.21;66.79;100246.41;6323569;28;20040;-65
2021/06/15 06:01:10;;;;;;;3.07;1.40;;;;;;;17.14;68.03;100240.00;6305624;28;20036;-65
2021/06/15 06:04:13;;;;;;;1.55;1.45;;;;;;;17.25;68.87;100239.91;6322257;28;20068;-64
2021/06/15 06:10:35;;;;;;;2.63;1.50;;;;;;;17.52;67.19;100234.88;6323503;28;20040;-64
2021/06/15 06:13:36;;;;;;;2.58;1.20;;;;;;;17.63;67.99;100230.47;6321536;28;20060;-64
2021/06/15 06:16:37;;;;;;;4.03;1.60;;;;;;;17.71;67.34;100230.63;6321658;28;20093;-64
2021/06/15 06:19:38;;;;;;;3.17;1.50;;;;;;;17.81;66.75;100234.13;6322813;28;20036;-64
2021/06/15 06:22:39;;;;;;;2.87;1.57;;;;;;;17.93;65.43;100240.13;6321663;28;20044;-65
2021/06/15 06:25:40;;;;;;;5.20;1.40;;;;;;;18.02;66.45;100241.13;6322830;28;20410;-65
2021/06/15 06:28:41;;;;;;;3.60;1.65;;;;;;;18.19;67.00;100237.81;6322739;28;20032;-65
2021/06/15 06:31:42;;;;;;;4.60;1.73;;;;;;;18.32;64.62;100230.47;6325072;28;20171;-65
2021/06/15 06:34:42;;;;;;;1.77;1.48;;;;;;;18.49;63.33;100230.69;6329604;28;20050;-65
2021/06/15 06:37:43;;;;;;;6.72;1.50;;;;;;;18.59;64.20;100235.97;6348016;28;20047;-65
2021/06/15 06:40:44;;;;;;;3.33;1.33;;;;;;;18.66;64.29;100231.81;6339707;28;20036;-64
2021/06/15 06:43:45;;;;;;;3.33;1.40;;;;;;;18.81;63.44;100243.63;6321172;28;20048;-64
2021/06/15 06:46:46;;;;;;;4.15;1.45;;;;;;;19.01;62.10;100236.50;6321218;28;20052;-65
2021/06/15 06:49:47;;;;;;;3.83;1.48;;;;;;;19.22;61.24;100236.28;6322505;28;20452;-65
2021/06/15 06:52:48;;;;;;;3.73;1.33;;;;;;;19.23;61.85;100239.75;6322362;28;20100;-66
2021/06/15 06:55:49;;;;;;;2.80;1.63;;;;;;;19.33;61.37;100238.75;6321179;28;20533;-66
2021/06/15 06:58:49;;;;;;;5.43;1.57;;;;;;;19.50;61.08;100234.50;6304248;28;20040;-66
2021/06/15 07:01:50;;;;;;;3.40;1.17;;;;;;;19.69;58.51;100233.56;6322181;28;20478;-66
2021/06/15 07:04:51;;;;;;;3.00;1.43;;;;;;;19.73;59.52;100231.47;6328521;28;20094;-65
2021/06/15 07:07:52;;;;;;;4.40;1.65;;;;;;;19.70;57.27;100226.44;6318633;28;20047;-64
2021/06/15 07:10:53;;;;;;;2.53;1.27;;;;;;;19.82;57.45;100230.56;6334974;28;20131;-63
2021/06/15 07:13:53;;;;;;;1.73;1.20;;;;;;;19.87;59.22;100233.63;6346148;28;20130;-63
2021/06/15 07:16:54;;;;;;;1.73;1.20;;;;;;;19.91;56.82;100232.34;6328913;28;20040;-63
2021/06/15 07:19:55;;;;;;;2.83;1.47;;;;;;;20.02;58.93;100236.59;6346330;28;20134;-63
2021/06/15 07:22:55;;;;;;;1.67;1.20;;;;;;;20.07;57.78;100236.13;6346915;28;20111;-64
2021/06/15 07:25:56;;;;;;;5.43;1.40;;;;;;;20.18;56.83;100241.22;6345719;28;20118;-64
2021/06/15 07:28:59;;;;;;;1.80;1.23;;;;;;;20.24;57.58;100243.25;6346805;28;20051;-64
2021/06/15 07:32:00;;;;;;;6.55;1.40;;;;;;;20.08;58.18;100237.81;6346192;28;20077;-63
2021/06/15 07:35:01;;;;;;;2.23;1.20;;;;;;;20.30;56.78;100232.06;6345410;28;20103;-64
2021/06/15 07:38:01;;;;;;;4.07;1.47;;;;;;;20.37;57.36;100232.28;6332022;28;20379;-65
2021/06/15 07:41:02;;;;;;;1.90;1.37;;;;;;;20.45;56.23;100234.16;6333937;28;20093;-65
2021/06/15 07:44:05;;;;;;;2.03;1.42;;;;;;;20.51;57.06;100229.06;6322942;28;20044;-65
2021/06/15 07:47:06;;;;;;;2.45;1.30;;;;;;;20.63;56.63;100236.78;6332245;28;20051;-65
2021/06/15 07:50:07;;;;;;;6.37;1.40;;;;;;;20.66;56.90;100232.03;6327962;28;20036;-65
2021/06/15 07:53:08;;;;;;;3.80;1.35;;;;;;;20.88;55.90;100228.03;6321509;28;20036;-65
2021/06/15 07:56:09;;;;;;;2.27;1.10;;;;;;;20.67;55.98;100231.06;6333982;28;20036;-65
2021/06/15 07:59:10;;;;;;;4.17;1.30;;;;;;;20.75;56.54;100227.59;6346704;28;20039;-65
2021/06/15 08:02:11;;;;;;;2.83;1.27;;;;;;;20.83;56.14;100227.66;6339354;28;20032;-65
2021/06/15 08:05:13;;;;;;;1.50;1.40;;;;;;;20.90;55.81;100226.06;6321305;28;20040;-65
2021/06/15 08:08:13;;;;;;;3.38;1.15;;;;;;;20.85;57.60;100222.22;6319653;28;20487;-62
2021/06/15 08:11:15;;;;;;;4.57;1.17;;;;;;;20.88;57.47;100228.03;6320911;28;20052;-65
2021/06/15 08:14:16;;;;;;;2.70;1.20;;;;;;;21.13;55.80;100218.41;6319970;28;20067;-66
2021/06/15 08:17:16;;;;;;;1.73;1.27;;;;;;;21.12;57.01;100205.28;6339688;28;20050;-66
2021/06/15 08:20:17;;;;;;;2.20;1.43;;;;;;;21.04;54.56;100206.06;6346031;28;20048;-67
2021/06/15 08:23:19;;;;;;;2.00;1.40;;;;;;;21.08;54.58;100210.06;6346110;28;20040;-66
2021/06/15 08:26:19;;;;;;;2.80;1.52;;;;;;;21.12;54.89;100205.28;6327970;28;20118;-66
2021/06/15 08:29:20;;;;;;;2.27;1.13;;;;;;;21.25;55.41;100204.84;6346294;28;20036;-66
2021/06/15 08:32:22;;;;;;;1.40;1.30;;;;;;;21.25;57.84;100205.69;6344589;28;20049;-65
2021/06/15 08:35:22;;;;;;;5.65;1.30;;;;;;;21.38;57.19;100201.75;6344662;28;20100;-64
2021/06/15 08:38:23;;;;;;;5.87;1.27;;;;;;;21.56;54.46;100205.19;6345687;28;20059;-63
2021/06/15 08:41:24;;;;;;;4.83;1.20;;;;;;;21.48;54.52;100200.66;6345719;28;20116;-64
2021/06/15 08:44:25;;;;;;;4.00;1.27;;;;;;;21.74;53.10;100194.41;6348574;28;20055;-64
2021/06/15 08:47:27;;;;;;;1.88;1.10;;;;;;;21.62;53.01;100196.56;6349342;28;20039;-64
2021/06/15 08:50:28;;;;;;;3.38;1.02;;;;;;;21.69;55.43;100197.56;6350397;28;20097;-64
2021/06/15 08:53:33;;;;;;;1.20;1.10;;;;;;;21.72;52.15;100191.09;6349230;28;20105;-64
2021/06/15 08:56:35;;;;;;;2.28;1.15;;;;;;;21.90;52.33;100194.44;6332285;28;20043;-64
2021/06/15 08:59:36;;;;;;;2.00;1.20;;;;;;;21.94;52.52;100200.28;6348989;28;20440;-64
2021/06/15 09:02:45;;;;;;;5.50;1.10;;;;;;;21.98;51.39;100188.31;6350134;28;20040;-64
2021/06/15 09:05:46;;;;;;;1.60;1.08;;;;;;;22.00;52.49;100196.13;6348696;28;20421;-64
2021/06/15 09:08:52;;;;;;;1.57;1.10;;;;;;;22.14;52.44;100188.34;6349038;28;20047;-64
2021/06/15 09:11:56;;;;;;;1.50;1.10;;;;;;;22.07;51.10;100181.19;6350204;28;20138;-64
2021/06/15 09:14:57;;;;;;;2.72;1.00;;;;;;;22.30;51.33;100187.53;6350217;28;20042;-65
2021/06/15 09:17:58;;;;;;;2.87;1.20;;;;;;;22.26;52.30;100190.72;6350710;28;20043;-65
2021/06/15 09:21:00;;;;;;;2.10;0.93;;;;;;;22.35;50.07;100189.69;6348751;28;20039;-65
2021/06/15 09:24:12;;;;;;;2.95;1.08;;;;;;;22.54;50.73;100193.84;6314858;28;20047;-65
2021/06/15 09:27:13;;;;;;;;;;;;;;;22.46;49.60;100186.69;6348607;28;20040;-64
2021/06/15 09:30:14;;;;;;;1.52;1.17;;;;;;;22.38;52.08;100185.88;6348421;28;20028;-66
2021/06/15 09:33:15;;;;;;;2.35;1.20;;;;;;;22.65;50.22;100190.84;6349673;28;20047;-65
2021/06/15 09:36:17;;;;;;;3.00;1.20;;;;;;;22.67;51.38;100190.66;6349370;28;20043;-66
2021/06/15 09:39:17;;;;;;;1.25;1.00;;;;;;;22.83;49.38;100189.78;6349219;28;20044;-65
2021/06/15 09:42:18;;;;;;;1.40;1.13;;;;;;;22.79;49.98;100183.97;6348146;28;20047;-64
2021/06/15 09:45:22;;;;;;;1.80;1.00;;;;;;;22.91;51.00;100189.78;6349190;28;20039;-66
2021/06/15 09:48:34;;;;;;;3.08;1.20;;;;;;;23.18;50.85;100185.88;6349266;28;20044;-64
2021/06/15 09:51:35;;;;;;;4.15;1.17;;;;;;;23.23;48.42;100185.41;6348929;28;20084;-65
2021/06/15 09:54:46;;;;;;;4.43;1.00;;;;;;;23.19;49.55;100181.41;6347125;28;20035;-64
2021/06/15 09:57:48;;;;;;;1.33;1.05;;;;;;;23.25;48.46;100180.72;6348800;28;20058;-64
2021/06/15 10:00:53;;;;;;;4.10;1.10;;;;;;;23.24;48.91;100176.38;6347961;28;20059;-65
2021/06/15 10:04:14;;;;;;;2.92;1.10;;;;;;;23.31;49.40;100174.72;6348890;28;20139;-65
2021/06/15 10:07:24;;;;;;;2.13;1.02;;;;;;;23.50;50.25;100173.44;6348677;28;20387;-65
2021/06/15 10:10:29;;;;;;;3.85;1.30;;;;;;;23.59;48.38;100174.22;6348406;28;20043;-65
2021/06/15 10:13:30;;;;;;;1.88;1.30;;;;;;;23.59;47.67;100158.25;6347025;28;20120;-65
2021/06/15 10:16:31;;;;;;;1.87;1.10;;;;;;;23.64;48.42;100166.53;6348610;28;20375;-65
2021/06/15 10:19:32;;;;;;;5.28;1.20;;;;;;;23.73;48.58;100163.63;6347267;28;20334;-65
2021/06/15 10:22:33;;;;;;;2.23;1.10;;;;;;;23.63;48.78;100163.03;6348561;28;20474;-65
2021/06/15 10:25:34;;;;;;;1.20;1.10;;;;;;;23.91;47.54;100170.56;6330300;28;20482;-65
2021/06/15 10:28:35;;;;;;;3.40;1.27;;;;;;;23.99;46.30;100173.16;6347320;28;20042;-65
2021/06/15 10:31:36;;;;;;;1.38;1.10;;;;;;;23.80;47.15;100171.78;6347314;28;20051;-65
2021/06/15 10:34:57;;;;;;;2.72;1.00;;;;;;;23.81;47.60;100164.63;6348260;28;20051;-65
2021/06/15 10:37:59;;;;;;;5.53;1.17;;;;;;;23.94;46.14;100157.69;6348287;28;20546;-65
2021/06/15 10:41:02;;;;;;;2.58;1.50;;;;;;;24.04;48.24;100156.63;6346885;28;20043;-65
2021/06/15 10:44:07;;;;;;;3.90;1.10;;;;;;;24.17;46.65;100154.19;6347856;28;20456;-65
2021/06/15 10:47:11;;;;;;;2.15;1.10;;;;;;;24.24;45.78;100151.63;6348173;28;20500;-65
2021/06/15 10:50:11;;;;;;;1.58;1.05;;;;;;;24.40;46.28;100151.50;6347773;28;20145;-65
2021/06/15 10:53:14;;;;;;;2.42;1.27;;;;;;;24.26;46.77;100155.78;6347658;28;20486;-65
2021/06/15 10:56:17;;;;;;;3.13;1.30;;;;;;;24.39;45.68;100152.47;6347820;28;20456;-64
2021/06/15 10:59:18;;;;;;;3.92;1.30;;;;;;;24.55;46.85;100158.72;6347634;28;20039;-66
2021/06/15 11:02:19;;;;;;;2.87;1.27;;;;;;;24.83;46.73;100143.75;6345876;28;20116;-66
2021/06/15 11:05:41;;;;;;;1.40;1.20;;;;;;;25.09;48.08;100142.41;6345958;28;20271;-65
2021/06/15 11:08:42;;;;;;;;;;;;;;;25.21;43.94;100137.47;6347084;28;20090;-65
2021/06/15 11:11:47;;;;;;;2.40;0.93;;;;;;;25.26;44.77;100143.88;6346783;28;19927;-65
2021/06/15 11:15:10;;;;;;;1.77;1.35;;;;;;;25.28;44.47;100143.69;6348400;28;20079;-65
2021/06/15 11:18:14;;;;;;;2.22;1.15;;;;;;;25.42;45.13;100131.34;6348421;28;20040;-65
2021/06/15 11:21:17;;;;;;;1.23;1.10;;;;;;;25.21;44.24;100130.28;6346632;28;20567;-65
2021/06/15 11:24:21;;;;;;;2.42;1.20;;;;;;;25.38;44.59;100122.03;6347482;28;20035;-65
2021/06/15 11:27:23;;;;;;;3.53;1.20;;;;;;;25.46;44.76;100130.75;6347663;28;20050;-65
2021/06/15 11:30:26;;;;;;;3.25;1.42;;;;;;;25.46;45.44;100124.59;6347761;28;20502;-65
2021/06/15 11:33:59;;;;;;;4.68;1.10;;;;;;;25.63;43.32;100126.00;6347625;28;20040;-65
2021/06/15 11:37:18;;;;;;;2.47;1.30;;;;;;;25.74;45.11;100120.16;6346426;28;20062;-65
2021/06/15 11:40:28;;;;;;;1.73;1.05;;;;;;;25.90;43.24;100124.47;6347592;28;20092;-65
2021/06/15 11:43:34;;;;;;;3.58;1.30;;;;;;;26.13;43.27;100110.06;6347245;28;20063;-65
2021/06/15 11:46:34;;;;;;;2.33;1.30;;;;;;;26.37;41.83;100108.75;6347161;28;20039;-65
2021/06/15 11:49:35;;;;;;;6.70;1.38;;;;;;;26.41;41.14;100104.69;6347175;28;20169;-65
2021/06/15 11:52:39;;;;;;;4.65;1.20;;;;;;;26.50;41.18;100103.53;6347182;28;20035;-65
2021/06/15 11:55:51;;;;;;;2.35;1.30;;;;;;;26.79;40.85;100098.13;6346171;28;20039;-65
2021/06/15 11:58:55;;;;;;;5.93;1.25;;;;;;;27.01;40.43;100093.50;6347159;28;20097;-65
2021/06/15 12:01:56;;;;;;;2.90;1.20;;;;;;;27.36;39.80;100090.75;6313398;28;20043;-65
2021/06/15 12:05:15;;;;;;;1.35;1.00;;;;;;;27.90;37.83;100096.00;6347229;28;20335;-66
2021/06/15 12:08:17;;;;;;;4.57;1.20;;;;;;;28.17;36.93;100085.28;6345931;28;20040;-66
2021/06/15 12:11:21;;;;;;;2.10;1.10;;;;;;;28.33;36.93;100084.84;6347043;28;20056;-66
2021/06/15 12:14:21;;;;;;;1.95;1.17;;;;;;;29.93;34.32;100081.38;6347159;28;20035;-66
2021/06/15 12:17:22;;;;;;;;;;;;;;;31.61;32.20;100072.19;6349863;28;20054;-66
2021/06/15 12:20:32;;;;;;;3.35;1.17;;;;;;;32.94;29.31;100067.09;6352244;28;19931;-66
2021/06/15 12:23:44;;;;;;;1.38;1.02;;;;;;;31.23;31.23;100076.88;6351117;28;20062;-63
2021/06/15 12:26:47;;;;;;;1.63;1.20;;;;;;;29.26;33.45;100078.34;6350825;28;20047;-63
2021/06/15 12:29:48;;;;;;;3.92;1.10;;;;;;;28.73;35.59;100081.25;6332997;28;20035;-63
2021/06/15 12:32:49;;;;;;;3.28;1.00;;;;;;;31.26;31.08;100078.31;6351098;28;20055;-63
2021/06/15 12:35:50;;;;;;;1.13;1.00;;;;;;;32.62;29.05;100075.66;6349537;28;20044;-63
2021/06/15 12:38:51;;;;;;;1.58;1.00;;;;;;;33.35;27.62;100065.16;6349468;28;20040;-62
2021/06/15 12:41:56;;;;;;;1.70;1.10;;;;;;;32.29;28.84;100060.09;6350611;28;20557;-63
2021/06/15 12:44:57;;;;;;;1.10;0.90;;;;;;;31.41;30.28;100059.84;6350440;28;20039;-63
2021/06/15 12:47:57;;;;;;;2.85;0.98;;;;;;;32.93;28.32;100065.47;6350369;28;20042;-63
2021/06/15 12:51:07;;;;;;;1.20;0.88;;;;;;;33.55;27.95;100053.06;6349181;28;20036;-63
2021/06/15 12:54:23;;;;;;;1.33;0.95;;;;;;;34.21;25.72;100062.25;6350507;28;20043;-63
2021/06/15 12:57:24;;;;;;;4.72;1.10;;;;;;;34.82;25.64;100058.69;6350254;28;20093;-63
2021/06/15 13:00:24;;;;;;;3.15;1.20;;;;;;;35.09;25.57;100056.00;6348948;28;20451;-63
2021/06/15 13:03:36;;;;;;;1.05;0.98;;;;;;;35.63;24.83;100047.00;6349277;28;20463;-64
2021/06/15 13:06:36;;;;;;;2.55;0.93;;;;;;;33.89;26.40;100043.91;6348853;28;20100;-63
2021/06/15 13:09:37;;;;;;;2.17;0.90;;;;;;;31.82;29.10;100046.56;6349893;28;20040;-62
2021/06/15 13:12:48;;;;;;;1.13;0.90;;;;;;;33.45;26.48;100030.19;6348516;28;20188;-63
2021/06/15 13:15:49;;;;;;;2.80;1.02;;;;;;;32.76;27.88;100037.56;6348430;28;20043;-63
2021/06/15 13:19:09;;;;;;;0.88;0.85;;;;;;;31.64;28.93;100034.81;6349694;28;20063;-62
2021/06/15 13:22:16;;;;;;;1.23;0.98;;;;;;;30.47;31.34;100030.59;6349581;27;20724;-62
2021/06/15 13:25:16;;;;;;;1.95;1.00;;;;;;;30.42;31.50;100033.13;6349489;28;20476;-62
2021/06/15 13:28:22;;;;;;;;;;;;;;;30.55;32.65;100016.00;6348954;28;20473;-63
2021/06/15 13:31:23;;;;;;;6.65;1.00;;;;;;;30.13;33.41;100016.66;6349565;28;19919;-62
2021/06/15 13:34:24;;;;;;;;;;;;;;;29.03;33.90;100013.56;6349765;28;20047;-63
2021/06/15 13:37:29;;;;;;;1.87;1.10;;;;;;;28.70;34.55;100011.88;6349173;28;19927;-62
2021/06/15 13:40:42;;;;;;;1.75;1.02;;;;;;;28.43;35.61;100005.75;6348081;28;20398;-63
2021/06/15 13:43:43;;;;;;;2.90;1.15;;;;;;;28.55;35.98;99996.03;6349154;28;20040;-63
2021/06/15 13:46:44;;;;;;;7.90;1.30;;;;;;;28.84;35.07;99994.66;6349516;27;20158;-63
2021/06/15 13:49:45;;;;;;;4.13;1.20;;;;;;;28.75;34.67;99985.22;6348957;28;20112;-62
2021/06/15 13:52:46;;;;;;;1.55;1.20;;;;;;;28.20;35.12;99987.47;6347812;28;20040;-62
2021/06/15 13:55:47;;;;;;;1.58;1.10;;;;;;;27.88;36.73;99992.66;6330521;28;20042;-63
2021/06/15 13:58:48;;;;;;;5.65;1.00;;;;;;;28.01;34.93;99983.81;6347567;28;20035;-62
2021/06/15 14:01:48;;;;;;;1.60;1.20;;;;;;;28.19;36.04;99975.06;6347442;28;20482;-64
2021/06/15 14:04:49;;;;;;;2.13;1.30;;;;;;;28.26;36.44;99982.06;6348704;28;20040;-63
2021/06/15 14:07:51;;;;;;;5.32;1.10;;;;;;;28.30;36.57;99974.44;6348330;28;20478;-63
2021/06/15 14:10:51;;;;;;;3.40;1.25;;;;;;;28.34;36.38;99972.97;6348407;27;20406;-65
2021/06/15 14:13:52;;;;;;;4.55;1.23;;;;;;;28.31;35.79;99966.19;6330185;28;20050;-64
2021/06/15 14:16:53;;;;;;;1.58;1.08;;;;;;;27.85;36.34;99963.56;6330442;28;20099;-66
2021/06/15 14:19:54;;;;;;;3.00;1.00;;;;;;;27.99;35.58;99957.19;6347295;28;20405;-66
2021/06/15 14:22:55;;;;;;;3.05;1.17;;;;;;;28.13;37.38;99956.13;6348288;28;20083;-66